createdAt,value
2023-04-09T00:01:12.551Z,102523.38
2023-04-09T00:03:42.663Z,102519.81
2023-04-09T00:06:13.083Z,102510.94
2023-04-09T00:08:41.182Z,102514.31
2023-04-09T00:11:10.694Z,102514.19
2023-04-09T00:13:39.969Z,102508.72
2023-04-09T00:16:09.395Z,102511.25
2023-04-09T00:18:45.734Z,102522.63
2023-04-09T00:21:13.955Z,102513.81
2023-04-09T00:23:42.014Z,102520.75
2023-04-09T00:26:11.475Z,102519.75
2023-04-09T00:28:40.737Z,102519.69
2023-04-09T00:31:09.850Z,102522.28
2023-04-09T00:33:37.908Z,102514.34
2023-04-09T00:36:06.620Z,102518.72
2023-04-09T00:38:34.636Z,102517.81
2023-04-09T00:41:02.793Z,102512.47
2023-04-09T00:43:32.168Z,102519.47
2023-04-09T00:46:00.843Z,102516.88
2023-04-09T00:48:29.180Z,102519.47
2023-04-09T00:50:57.429Z,102518.56
2023-04-09T00:53:26.452Z,102526.47
2023-04-09T00:55:54.509Z,102522.97
2023-04-09T00:58:22.811Z,102529.97
2023-04-09T01:00:52.230Z,102528.19
2023-04-09T01:03:20.787Z,102521.13
2023-04-09T01:06:00.278Z,102521.13
2023-04-09T01:08:34.874Z,102516.72
2023-04-09T01:11:09.832Z,102517.63
2023-04-09T01:13:48.663Z,102519.41
2023-04-09T01:16:23.602Z,102514.09
2023-04-09T01:18:58.965Z,102524.63
2023-04-09T01:21:32.634Z,102521.09
2023-04-09T01:24:10.965Z,102522.78
2023-04-09T01:26:57.263Z,102519.25
2023-04-09T01:29:34.619Z,102517.47
2023-04-09T01:32:04.134Z,102516.53
2023-04-09T01:34:32.643Z,102515.78
2023-04-09T01:37:03.419Z,102519.25
2023-04-09T01:39:32.368Z,102524.47
2023-04-09T01:42:03.856Z,102527.09
2023-04-09T01:44:34.132Z,102527.97
2023-04-09T01:47:02.964Z,102535.03
2023-04-09T01:49:31.553Z,102526.28
2023-04-09T01:52:00.068Z,102527.16
2023-04-09T01:54:28.157Z,102529.78
2023-04-09T01:56:58.712Z,102529.75
2023-04-09T01:59:26.860Z,102528.91
2023-04-09T02:02:00.988Z,102521.91
2023-04-09T02:04:34.106Z,102522.78
2023-04-09T02:07:07.452Z,102528.88
2023-04-09T02:09:38.487Z,102526.19
2023-04-09T02:12:11.742Z,102530.50
2023-04-09T02:14:39.844Z,102529.66
2023-04-09T02:17:09.455Z,102533.13
2023-04-09T02:19:41.643Z,102529.56
2023-04-09T02:22:10.186Z,102533.88
2023-04-09T02:24:38.411Z,102529.47
2023-04-09T02:27:06.725Z,102531.09
2023-04-09T02:29:35.086Z,102523.16
2023-04-09T02:32:03.111Z,102523.09
2023-04-09T02:34:32.520Z,102520.44
2023-04-09T02:37:00.641Z,102530.94
2023-04-09T02:39:28.798Z,102525.63
2023-04-09T02:41:57.940Z,102533.56
2023-04-09T02:44:28.361Z,102532.63
2023-04-09T02:46:57.170Z,102540.50
2023-04-09T02:49:25.233Z,102533.53
2023-04-09T02:51:54.657Z,102535.31
2023-04-09T02:54:22.934Z,102530.88
2023-04-09T02:56:50.979Z,102530.00
2023-04-09T02:59:19.629Z,102535.34
2023-04-09T03:01:47.794Z,102531.88
2023-04-09T03:04:15.990Z,102536.31
2023-04-09T03:06:44.104Z,102532.03
2023-04-09T03:09:13.504Z,102532.09
2023-04-09T03:11:41.530Z,102539.13
2023-04-09T03:14:09.513Z,102533.97
2023-04-09T03:16:37.620Z,102542.84
2023-04-09T03:19:05.780Z,102539.44
2023-04-09T03:21:34.241Z,102540.47
2023-04-09T03:24:02.860Z,102546.72
2023-04-09T03:26:36.321Z,102541.75
2023-04-09T03:29:07.294Z,102538.28
2023-04-09T03:31:35.713Z,102541.72
2023-04-09T03:34:03.821Z,102544.28
2023-04-09T03:36:33.936Z,102541.75
2023-04-09T03:39:10.336Z,102536.34
2023-04-09T03:41:43.948Z,102531.81
2023-04-09T03:44:17.171Z,102545.59
2023-04-09T03:47:10.477Z,102536.44
2023-04-09T03:49:39.866Z,102533.31
2023-04-09T03:52:16.816Z,102537.97
2023-04-09T03:54:48.265Z,102532.03
2023-04-09T03:57:21.919Z,102534.84
2023-04-09T03:59:52.709Z,102541.97
2023-04-09T04:02:23.057Z,102539.38
2023-04-09T04:04:59.678Z,102542.00
2023-04-09T04:07:33.663Z,102533.97
2023-04-09T04:10:09.278Z,102536.53
2023-04-09T04:12:39.082Z,102532.84
2023-04-09T04:15:30.644Z,102536.22
2023-04-09T04:17:58.889Z,102538.69
2023-04-09T04:20:39.774Z,102545.56
2023-04-09T04:23:11.660Z,102544.38
2023-04-09T04:25:47.486Z,102545.97
2023-04-09T04:28:23.499Z,102550.53
2023-04-09T04:30:51.716Z,102546.09
2023-04-09T04:33:20.370Z,102541.66
2023-04-09T04:36:06.496Z,102534.44
2023-04-09T04:38:53.813Z,102543.25
2023-04-09T04:41:30.112Z,102538.63
2023-04-09T04:44:10.749Z,102536.00
2023-04-09T04:46:39.592Z,102539.19
2023-04-09T04:49:07.629Z,102538.19
2023-04-09T04:51:42.839Z,102544.88
2023-04-09T04:54:14.102Z,102534.34
2023-04-09T04:56:48.309Z,102535.09
2023-04-09T04:59:39.924Z,102541.25
2023-04-09T05:02:10.543Z,102538.97
2023-04-09T05:04:56.221Z,102534.06
2023-04-09T05:07:32.443Z,102540.31
2023-04-09T05:10:00.897Z,102547.41
2023-04-09T05:12:34.494Z,102548.22
2023-04-09T05:15:05.831Z,102540.72
2023-04-09T05:17:34.059Z,102543.06
2023-04-09T05:20:02.265Z,102543.38
2023-04-09T05:22:42.686Z,102543.81
2023-04-09T05:25:11.401Z,102543.63
2023-04-09T05:27:41.982Z,102544.88
2023-04-09T05:30:13.462Z,102551.28
2023-04-09T05:32:42.679Z,102551.31
2023-04-09T05:35:10.925Z,102557.47
2023-04-09T05:37:42.795Z,102558.72
2023-04-09T05:40:12.479Z,102567.88
2023-04-09T05:42:41.620Z,102559.75
2023-04-09T05:45:25.349Z,102565.38
2023-04-09T05:47:54.681Z,102562.75
2023-04-09T05:50:24.320Z,102563.56
2023-04-09T05:52:55.167Z,102561.16
2023-04-09T05:55:28.889Z,102560.03
2023-04-09T05:58:01.228Z,102562.09
2023-04-09T06:00:31.401Z,102567.97
2023-04-09T06:02:59.617Z,102574.56
2023-04-09T06:05:29.565Z,102563.38
2023-04-09T06:07:57.755Z,102557.28
2023-04-09T06:10:26.172Z,102559.59
2023-04-09T06:12:54.324Z,102564.00
2023-04-09T06:15:22.612Z,102566.56
2023-04-09T06:17:51.979Z,102566.72
2023-04-09T06:20:20.385Z,102576.91
2023-04-09T06:22:49.126Z,102576.56
2023-04-09T06:25:17.190Z,102576.44
2023-04-09T06:27:45.287Z,102586.78
2023-04-09T06:30:13.954Z,102577.03
2023-04-09T06:32:53.083Z,102580.91
2023-04-09T06:35:24.116Z,102585.34
2023-04-09T06:37:52.257Z,102585.81
2023-04-09T06:40:23.012Z,102585.09
2023-04-09T06:42:51.443Z,102595.59
2023-04-09T06:45:25.046Z,102589.31
2023-04-09T06:47:53.277Z,102590.59
2023-04-09T06:50:21.724Z,102591.41
2023-04-09T06:52:51.422Z,102597.00
2023-04-09T06:55:20.111Z,102597.19
2023-04-09T06:57:48.146Z,102598.25
2023-04-09T07:00:16.817Z,102604.81
2023-04-09T07:02:45.237Z,102612.81
2023-04-09T07:05:13.445Z,102607.94
2023-04-09T07:07:41.741Z,102609.31
2023-04-09T07:10:11.788Z,102612.66
2023-04-09T07:12:40.352Z,102605.81
2023-04-09T07:15:09.327Z,102617.59
2023-04-09T07:17:37.544Z,102622.25
2023-04-09T07:20:06.465Z,102621.81
2023-04-09T07:22:34.561Z,102621.00
2023-04-09T07:25:02.663Z,102627.13
2023-04-09T07:27:32.932Z,102620.47
2023-04-09T07:30:01.362Z,102611.28
2023-04-09T07:32:29.802Z,102620.19
2023-04-09T07:34:59.544Z,102618.47
2023-04-09T07:37:28.174Z,102616.19
2023-04-09T07:39:56.846Z,102616.66
2023-04-09T07:42:24.959Z,102617.59
2023-04-09T07:44:54.619Z,102616.16
2023-04-09T07:47:22.901Z,102621.09
2023-04-09T07:49:51.392Z,102624.19
2023-04-09T07:52:20.157Z,102622.16
2023-04-09T07:54:48.197Z,102620.78
2023-04-09T07:57:16.437Z,102618.81
2023-04-09T07:59:44.613Z,102618.16
2023-04-09T08:02:15.448Z,102619.97
2023-04-09T08:04:43.993Z,102618.03
2023-04-09T08:07:12.582Z,102618.16
2023-04-09T08:09:40.569Z,102624.31
2023-04-09T08:12:08.742Z,102614.16
2023-04-09T08:14:36.813Z,102613.88
2023-04-09T08:17:05.609Z,102617.88
2023-04-09T08:19:35.121Z,102619.56
2023-04-09T08:22:03.367Z,102624.81
2023-04-09T08:24:31.516Z,102621.72
2023-04-09T08:26:59.678Z,102618.53
2023-04-09T08:29:28.331Z,102628.03
2023-04-09T08:31:56.473Z,102624.09
2023-04-09T08:34:24.871Z,102622.13
2023-04-09T08:36:54.400Z,102628.06
2023-04-09T08:39:22.476Z,102627.81
2023-04-09T08:41:52.124Z,102621.91
2023-04-09T08:44:22.058Z,102620.31
2023-04-09T08:46:51.095Z,102624.88
2023-04-09T08:49:19.264Z,102622.16
2023-04-09T08:51:48.037Z,102624.09
2023-04-09T08:54:20.129Z,102628.97
2023-04-09T08:56:48.833Z,102629.81
2023-04-09T08:59:19.203Z,102630.31
2023-04-09T09:01:52.837Z,102630.22
2023-04-09T09:04:21.745Z,102624.84
2023-04-09T09:06:49.834Z,102626.19
2023-04-09T09:09:19.887Z,102624.13
2023-04-09T09:11:50.351Z,102631.19
2023-04-09T09:14:20.429Z,102627.78
2023-04-09T09:17:08.344Z,102635.66
2023-04-09T09:19:37.287Z,102636.41
2023-04-09T09:22:07.053Z,102638.59
2023-04-09T09:24:49.652Z,102634.63
2023-04-09T09:27:39.346Z,102639.34
2023-04-09T09:30:10.538Z,102637.88
2023-04-09T09:32:39.207Z,102643.53
2023-04-09T09:35:08.514Z,102634.72
2023-04-09T09:37:36.511Z,102633.03
2023-04-09T09:40:07.186Z,102641.16
2023-04-09T09:42:35.689Z,102644.03
2023-04-09T09:45:19.344Z,102635.19
2023-04-09T09:47:53.397Z,102634.38
2023-04-09T09:50:29.166Z,102648.81
2023-04-09T09:53:04.979Z,102646.28
2023-04-09T09:55:41.992Z,102638.31
2023-04-09T09:58:17.881Z,102638.25
2023-04-09T10:00:48.655Z,102636.53
2023-04-09T10:03:25.179Z,102630.34
2023-04-09T10:05:54.753Z,102634.78
2023-04-09T10:08:23.620Z,102640.09
2023-04-09T10:10:53.925Z,102637.53
2023-04-09T10:13:32.328Z,102635.75
2023-04-09T10:16:01.837Z,102640.09
2023-04-09T10:18:33.509Z,102636.53
2023-04-09T10:21:10.475Z,102640.03
2023-04-09T10:23:41.861Z,102633.81
2023-04-09T10:26:12.071Z,102648.84
2023-04-09T10:28:40.320Z,102646.25
2023-04-09T10:31:08.860Z,102648.06
2023-04-09T10:33:38.636Z,102644.59
2023-04-09T10:36:08.037Z,102643.69
2023-04-09T10:38:37.927Z,102642.63
2023-04-09T10:41:17.216Z,102642.66
2023-04-09T10:43:48.525Z,102640.94
2023-04-09T10:46:32.365Z,102642.63
2023-04-09T10:49:11.423Z,102653.28
2023-04-09T10:51:39.693Z,102647.84
2023-04-09T10:54:07.842Z,102644.22
2023-04-09T10:56:37.317Z,102638.00
2023-04-09T10:59:05.386Z,102658.47
2023-04-09T11:01:33.502Z,102650.53
2023-04-09T11:04:11.377Z,102649.63
2023-04-09T11:06:43.538Z,102652.31
2023-04-09T11:09:12.039Z,102650.44
2023-04-09T11:11:41.790Z,102644.22
2023-04-09T11:14:09.882Z,102650.44
2023-04-09T11:16:37.970Z,102644.22
2023-04-09T11:19:07.919Z,102646.00
2023-04-09T11:21:36.335Z,102655.88
2023-04-09T11:24:04.526Z,102657.72
2023-04-09T11:26:37.252Z,102654.25
2023-04-09T11:29:09.657Z,102656.13
2023-04-09T11:31:38.037Z,102659.66
2023-04-09T11:34:06.315Z,102654.28
2023-04-09T11:36:35.891Z,102653.44
2023-04-09T11:39:04.200Z,102657.03
2023-04-09T11:41:35.585Z,102655.25
2023-04-09T11:44:05.034Z,102653.53
2023-04-09T11:46:36.228Z,102655.31
2023-04-09T11:49:05.003Z,102658.00
2023-04-09T11:51:33.247Z,102655.44
2023-04-09T11:54:03.276Z,102657.16
2023-04-09T11:56:32.484Z,102657.16
2023-04-09T11:59:02.297Z,102651.88
2023-04-09T12:01:33.229Z,102657.22
2023-04-09T12:04:03.212Z,102648.34
2023-04-09T12:06:31.892Z,102649.22
2023-04-09T12:09:01.137Z,102654.63
2023-04-09T12:11:31.779Z,102656.47
2023-04-09T12:14:01.310Z,102653.00
2023-04-09T12:16:31.490Z,102653.06
2023-04-09T12:19:03.780Z,102650.47
2023-04-09T12:21:47.722Z,102652.31
2023-04-09T12:24:17.072Z,102664.81
2023-04-09T12:26:46.289Z,102657.75
2023-04-09T12:29:15.895Z,102654.28
2023-04-09T12:31:44.320Z,102653.41
2023-04-09T12:34:13.888Z,102660.56
2023-04-09T12:36:47.284Z,102656.19
2023-04-09T12:39:16.091Z,102656.34
2023-04-09T12:41:44.839Z,102656.34
2023-04-09T12:44:12.916Z,102660.81
2023-04-09T12:46:41.456Z,102655.53
2023-04-09T12:49:09.600Z,102650.22
2023-04-09T12:51:39.884Z,102653.78
2023-04-09T12:54:08.362Z,102659.13
2023-04-09T12:56:36.381Z,102660.06
2023-04-09T12:59:04.899Z,102650.34
2023-04-09T13:01:33.208Z,102664.56
2023-04-09T13:04:01.697Z,102655.72
2023-04-09T13:06:29.989Z,102652.22
2023-04-09T13:08:59.428Z,102655.78
2023-04-09T13:11:28.018Z,102663.81
2023-04-09T13:13:56.183Z,102657.56
2023-04-09T13:16:24.445Z,102666.47
2023-04-09T13:18:52.911Z,102675.34
2023-04-09T13:21:21.153Z,102667.38
2023-04-09T13:23:49.417Z,102655.84
2023-04-09T13:26:18.836Z,102653.22
2023-04-09T13:28:47.238Z,102653.25
2023-04-09T13:31:15.481Z,102656.78
2023-04-09T13:33:43.687Z,102663.00
2023-04-09T13:36:12.257Z,102669.22
2023-04-09T13:38:40.336Z,102668.38
2023-04-09T13:41:08.532Z,102656.84
2023-04-09T13:43:38.350Z,102658.63
2023-04-09T13:46:07.280Z,102667.50
2023-04-09T13:48:35.363Z,102658.63
2023-04-09T13:51:03.583Z,102654.19
2023-04-09T13:53:31.714Z,102660.44
2023-04-09T13:55:59.769Z,102660.44
2023-04-09T13:58:27.824Z,102665.78
2023-04-09T14:00:57.305Z,102660.47
2023-04-09T14:03:25.528Z,102676.41
2023-04-09T14:05:53.634Z,102660.44
2023-04-09T14:08:22.133Z,102665.75
2023-04-09T14:10:50.336Z,102669.31
2023-04-09T14:13:18.426Z,102669.31
2023-04-09T14:15:46.581Z,102667.56
2023-04-09T14:18:16.381Z,102664.88
2023-04-09T14:20:44.519Z,102664.03
2023-04-09T14:23:12.691Z,102672.00
2023-04-09T14:25:40.802Z,102672.88
2023-04-09T14:28:08.932Z,102665.81
2023-04-09T14:30:36.948Z,102666.69
2023-04-09T14:33:05.240Z,102663.16
2023-04-09T14:35:34.936Z,102667.59
2023-04-09T14:38:04.433Z,102664.94
2023-04-09T14:40:33.053Z,102670.28
2023-04-09T14:43:01.421Z,102671.16
2023-04-09T14:45:30.708Z,102663.19
2023-04-09T14:47:59.355Z,102660.53
2023-04-09T14:50:27.474Z,102659.66
2023-04-09T14:52:56.932Z,102659.66
2023-04-09T14:55:25.959Z,102653.44
2023-04-09T14:57:54.435Z,102662.31
2023-04-09T15:00:23.039Z,102649.03
2023-04-09T15:02:51.376Z,102653.47
2023-04-09T15:05:19.795Z,102655.25
2023-04-09T15:07:47.902Z,102652.59
2023-04-09T15:10:17.425Z,102651.72
2023-04-09T15:12:45.450Z,102653.47
2023-04-09T15:15:14.757Z,102648.16
2023-04-09T15:17:43.071Z,102651.72
2023-04-09T15:20:13.817Z,102654.38
2023-04-09T15:22:42.266Z,102649.03
2023-04-09T15:27:40.379Z,102651.72
2023-04-09T15:30:09.753Z,102643.75
2023-04-09T15:32:37.783Z,102648.19
2023-04-09T15:35:06.758Z,102644.66
2023-04-09T15:37:34.848Z,102648.19
2023-04-09T15:40:03.935Z,102651.72
2023-04-09T15:42:32.289Z,102649.97
2023-04-09T15:45:01.978Z,102647.28
2023-04-09T15:47:33.428Z,102647.28
2023-04-09T15:50:04.770Z,102653.50
2023-04-09T15:52:33.109Z,102647.31
2023-04-09T15:55:01.672Z,102646.41
2023-04-09T15:57:30.460Z,102650.81
2023-04-09T15:59:58.566Z,102654.38
2023-04-09T16:02:28.049Z,102656.13
2023-04-09T16:04:56.485Z,102658.81
2023-04-09T16:07:24.596Z,102656.16
2023-04-09T16:09:52.649Z,102658.78
2023-04-09T16:12:20.756Z,102657.91
2023-04-09T16:14:48.789Z,102658.81
2023-04-09T16:17:16.852Z,102664.09
2023-04-09T16:19:46.271Z,102657.91
2023-04-09T16:22:14.494Z,102653.47
2023-04-09T16:24:42.493Z,102651.72
2023-04-09T16:27:11.027Z,102658.78
2023-04-09T16:29:39.087Z,102667.59
2023-04-09T16:32:07.222Z,102658.75
2023-04-09T16:34:35.319Z,102662.28
2023-04-09T16:37:04.779Z,102667.56
2023-04-09T16:39:32.872Z,102662.22
2023-04-09T16:42:01.687Z,102666.63
2023-04-09T16:44:29.770Z,102666.59
2023-04-09T16:46:57.794Z,102667.47
2023-04-09T16:49:26.013Z,102673.63
2023-04-09T16:51:54.128Z,102671.84
2023-04-09T16:54:23.707Z,102666.53
2023-04-09T16:56:51.705Z,102676.25
2023-04-09T16:59:21.073Z,102678.88
2023-04-09T17:01:49.858Z,102679.75
2023-04-09T17:04:18.252Z,102675.31
2023-04-09T17:06:47.165Z,102685.00
2023-04-09T17:09:15.323Z,102680.59
2023-04-09T17:11:44.851Z,102678.81
2023-04-09T17:14:13.299Z,102676.13
2023-04-09T17:16:41.485Z,102684.94
2023-04-09T17:19:09.949Z,102681.41
2023-04-09T17:21:38.122Z,102680.50
2023-04-09T17:24:06.692Z,102679.59
2023-04-09T17:26:34.714Z,102678.72
2023-04-09T17:29:04.611Z,102686.66
2023-04-09T17:31:33.234Z,102688.41
2023-04-09T17:34:01.482Z,102688.41
2023-04-09T17:36:29.624Z,102682.19
2023-04-09T17:38:58.409Z,102686.59
2023-04-09T17:41:27.900Z,102695.44
2023-04-09T17:43:57.047Z,102695.44
2023-04-09T17:46:26.582Z,102687.47
2023-04-09T17:48:55.056Z,102689.19
2023-04-09T17:51:23.484Z,102698.00
2023-04-09T17:53:54.375Z,102694.47
2023-04-09T17:56:23.719Z,102687.38
2023-04-09T17:58:52.272Z,102690.00
2023-04-09T18:01:20.759Z,102691.72
2023-04-09T18:03:50.726Z,102688.19
2023-04-09T18:06:19.177Z,102689.94
2023-04-09T18:08:47.770Z,102692.56
2023-04-09T18:11:18.172Z,102690.78
2023-04-09T18:13:46.568Z,102693.41
2023-04-09T18:16:14.878Z,102693.41
2023-04-09T18:18:43.327Z,102693.38
2023-04-09T18:21:12.823Z,102701.28
2023-04-09T18:23:41.196Z,102695.09
2023-04-09T18:26:09.345Z,102697.72
2023-04-09T18:28:37.384Z,102695.94
2023-04-09T18:31:05.947Z,102689.72
2023-04-09T18:33:34.238Z,102689.69
2023-04-09T18:36:02.829Z,102694.94
2023-04-09T18:38:32.305Z,102694.06
2023-04-09T18:41:01.276Z,102693.16
2023-04-09T18:43:29.697Z,102697.53
2023-04-09T18:45:58.238Z,102697.59
2023-04-09T18:48:26.706Z,102691.34
2023-04-09T18:50:55.036Z,102692.28
2023-04-09T18:53:23.088Z,102687.84
2023-04-09T18:55:53.810Z,102686.03
2023-04-09T18:58:22.781Z,102686.91
2023-04-09T19:00:51.739Z,102687.78
2023-04-09T19:03:20.683Z,102693.88
2023-04-09T19:05:49.672Z,102684.19
2023-04-09T19:08:17.841Z,102692.09
2023-04-09T19:10:47.579Z,102693.81
2023-04-09T19:13:17.156Z,102688.50
2023-04-09T19:15:49.028Z,102692.84
2023-04-09T19:18:18.765Z,102684.91
2023-04-09T19:20:47.126Z,102689.22
2023-04-09T19:23:15.150Z,102688.34
2023-04-09T19:25:43.110Z,102687.41
2023-04-09T19:28:11.621Z,102691.78
2023-04-09T19:30:41.045Z,102688.19
2023-04-09T19:33:09.193Z,102685.50
2023-04-09T19:35:40.644Z,102679.28
2023-04-09T19:38:09.236Z,102680.16
2023-04-09T19:40:37.490Z,102680.16
2023-04-09T19:43:05.697Z,102680.09
2023-04-09T19:45:33.911Z,102678.34
2023-04-09T19:48:03.454Z,102680.06
2023-04-09T19:50:31.720Z,102673.88
2023-04-09T19:52:59.755Z,102680.88
2023-04-09T19:55:28.486Z,102680.00
2023-04-09T19:57:56.608Z,102678.22
2023-04-09T20:00:24.656Z,102675.56
2023-04-09T20:02:53.594Z,102679.06
2023-04-09T20:05:23.500Z,102673.78
2023-04-09T20:07:52.737Z,102672.88
2023-04-09T20:10:21.264Z,102669.31
2023-04-09T20:12:50.623Z,102678.09
2023-04-09T20:15:20.844Z,102671.03
2023-04-09T20:17:49.342Z,102669.25
2023-04-09T20:20:19.992Z,102672.75
2023-04-09T20:22:56.443Z,102678.91
2023-04-09T20:25:25.701Z,102677.13
2023-04-09T20:27:57.308Z,102666.53
2023-04-09T20:30:25.982Z,102668.28
2023-04-09T20:32:54.556Z,102678.84
2023-04-09T20:35:24.202Z,102675.25
2023-04-09T20:37:57.295Z,102674.34
2023-04-09T20:40:26.522Z,102667.22
2023-04-09T20:42:55.785Z,102676.03
2023-04-09T20:45:24.315Z,102677.75
2023-04-09T20:47:53.673Z,102680.34
2023-04-09T20:50:22.292Z,102681.19
2023-04-09T20:52:50.781Z,102685.56
2023-04-09T20:55:21.077Z,102673.22
2023-04-09T20:57:49.619Z,102680.22
2023-04-09T21:00:20.916Z,102683.69
2023-04-09T21:02:49.427Z,102677.47
2023-04-09T21:05:23.257Z,102676.56
2023-04-09T21:07:52.686Z,102680.00
2023-04-09T21:10:22.329Z,102678.19
2023-04-09T21:12:50.385Z,102679.06
2023-04-09T21:15:18.612Z,102669.34
2023-04-09T21:17:46.793Z,102671.94
2023-04-09T21:20:16.755Z,102665.72
2023-04-09T21:22:44.897Z,102668.31
2023-04-09T21:25:15.254Z,102667.44
2023-04-09T21:27:45.947Z,102669.16
2023-04-09T21:30:17.246Z,102663.78
2023-04-09T21:32:45.621Z,102669.97
2023-04-09T21:35:14.025Z,102664.66
2023-04-09T21:37:42.267Z,102657.63
2023-04-09T21:40:11.531Z,102662.03
2023-04-09T21:42:40.942Z,102667.28
2023-04-09T21:45:11.886Z,102667.28
2023-04-09T21:47:40.779Z,102669.00
2023-04-09T21:50:10.763Z,102668.06
2023-04-09T21:52:39.445Z,102666.28
2023-04-09T21:55:09.829Z,102660.97
2023-04-09T21:57:38.564Z,102656.56
2023-04-09T22:00:11.924Z,102656.53
2023-04-09T22:02:40.950Z,102659.19
2023-04-09T22:05:10.428Z,102656.50
2023-04-09T22:07:40.964Z,102652.94
2023-04-09T22:10:11.057Z,102651.13
2023-04-09T22:12:40.810Z,102658.09
2023-04-09T22:15:13.512Z,102657.19
2023-04-09T22:17:42.416Z,102647.47
2023-04-09T22:20:11.250Z,102650.06
2023-04-09T22:22:40.219Z,102647.44
2023-04-09T22:25:11.286Z,102649.16
2023-04-09T22:27:40.921Z,102646.44
2023-04-09T22:30:11.658Z,102644.69
2023-04-09T22:32:40.549Z,102644.63
2023-04-09T22:35:10.305Z,102648.97
2023-04-09T22:37:40.313Z,102641.91
2023-04-09T22:40:14.399Z,102640.13
2023-04-09T22:42:43.664Z,102645.34
2023-04-09T22:45:14.171Z,102641.78
2023-04-09T22:47:42.886Z,102635.59
2023-04-09T22:50:13.748Z,102631.09
2023-04-09T22:52:42.358Z,102633.75
2023-04-09T22:55:11.848Z,102632.84
2023-04-09T22:57:43.127Z,102631.97
2023-04-09T23:00:14.507Z,102620.47
2023-04-09T23:02:43.451Z,102628.31
2023-04-09T23:05:12.084Z,102629.16
2023-04-09T23:07:42.883Z,102627.41
2023-04-09T23:10:14.384Z,102629.09
2023-04-09T23:12:43.524Z,102622.94
2023-04-09T23:15:13.634Z,102622.91
2023-04-09T23:17:43.156Z,102631.66
2023-04-09T23:20:15.114Z,102629.94
2023-04-09T23:22:43.884Z,102623.72
2023-04-09T23:25:13.588Z,102623.66
2023-04-09T23:27:42.282Z,102620.97
2023-04-09T23:30:11.905Z,102624.50
2023-04-09T23:32:42.354Z,102629.78
2023-04-09T23:35:11.717Z,102626.22
2023-04-09T23:37:40.568Z,102620.91
2023-04-09T23:40:10.482Z,102624.38
2023-04-09T23:42:40.127Z,102634.00
2023-04-09T23:45:09.762Z,102626.91
2023-04-09T23:47:39.662Z,102628.66
2023-04-09T23:50:10.665Z,102625.94
2023-04-09T23:52:39.860Z,102627.69
2023-04-09T23:55:09.871Z,102621.50
2023-04-09T23:57:38.916Z,102621.41
